Godspeed — OEX6195 — position and weather

sailwx.info

Track history (hours):
 
Tides and Currents Weather Stations Pressure Air Temp Water Temp Dewpoint Dewpoint Depression Visibility Wind Speed Wind Dir Waves Ship Positions

Godspeed

Last reported at 2018-Feb-20 21:32 UTC. Time now 2018-Feb-21 15:45 UTC.
Position N 18°02' W 063°05'.

Length 12 m.

Type: Sailing vessel. MMSI: 203545300.

Date/timePositionNaut miles runAvg speedWind from/ knotsBaromVisibWave heightAir tempDewpointWater temp
2018-Feb-20 21:32N 18°02' W 063°05'0 0.1
2018-Feb-20 21:25N 18°02' W 063°05'1 1.3
2018-Feb-20 20:59N 18°02' W 063°06'0 0.0
2018-Feb-20 20:25N 18°02' W 063°06'2 3.3
2018-Feb-20 19:56N 18°01' W 063°05'7 1.3
2018-Feb-20 14:39N 17°54' W 063°02'1 3.4
2018-Feb-20 14:29N 17°55' W 063°03'2 4.5
2018-Feb-20 13:59N 17°56' W 063°05'2 5.2
2018-Feb-20 13:30N 17°57' W 063°07'1 2.4
2018-Feb-20 12:59N 17°57' W 063°09'2 4.5
2018-Feb-20 12:30N 17°57' W 063°11'87 5.0
2018-Feb-19 18:56N 17°20' W 061°48'4 8.6
2018-Feb-19 18:30N 17°17' W 061°46'4 8.5
2018-Feb-19 18:00N 17°13' W 061°44'4 8.6
2018-Feb-19 17:30N 17°09' W 061°41'4 8.6
2018-Feb-19 17:00N 17°05' W 061°40'4 5.7
2018-Feb-19 16:22N 17°02' W 061°41'1 4.1
2018-Feb-19 16:00N 17°01' W 061°42'2 4.3
2018-Feb-19 15:30N 16°59' W 061°43'2 4.5
2018-Feb-19 14:59N 16°60' W 061°46'0 0.4
2018-Feb-19 14:26N 16°60' W 061°46'1 1.2
2018-Feb-19 14:00N 16°60' W 061°47'1 1.1
2018-Feb-19 13:30N 16°60' W 061°46'1 1.0
2018-Feb-19 12:58N 17°00' W 061°46'0 0.0
2018-Feb-19 12:28N 17°00' W 061°46'0 0.0
2018-Feb-19 11:58N 17°00' W 061°46'0 0.0
2018-Feb-19 11:28N 17°00' W 061°46'0 0.0
2018-Feb-18 22:34N 17°00' W 061°46'0 0.0
2018-Feb-18 22:28N 17°00' W 061°46'0 0.0
2018-Feb-18 21:58N 17°00' W 061°46'0 0.0
2018-Feb-18 21:28N 17°00' W 061°46'0 0.0
2018-Feb-18 20:58N 17°00' W 061°46'0 0.0
2018-Feb-18 20:28N 17°00' W 061°46'0 0.0
2018-Feb-18 19:59N 17°00' W 061°46'0 0.6
2018-Feb-18 19:29N 17°00' W 061°46'0 0.0
2018-Feb-18 18:59N 17°00' W 061°46'0 0.0
2018-Feb-18 18:29N 17°00' W 061°46'0 0.7
2018-Feb-18 18:00N 16°60' W 061°46'2 3.8
2018-Feb-18 17:29N 16°59' W 061°44'0 0.5
2018-Feb-18 17:00N 16°59' W 061°44'1 2.2
2018-Feb-18 16:30N 16°59' W 061°45'1 2.9
2018-Feb-18 16:00N 17°00' W 061°46'0 0.0
2018-Feb-18 15:30N 17°00' W 061°46'0 0.0
2018-Feb-18 15:00N 17°00' W 061°46'0 0.0
2018-Feb-18 14:29N 17°00' W 061°46'0 0.0
2018-Feb-18 13:59N 17°00' W 061°46'0 0.0
2018-Feb-18 13:30N 17°00' W 061°46'0 0.0
2018-Feb-17 21:36N 17°00' W 061°46'0 0.0
2018-Feb-17 21:30N 17°00' W 061°46'0 0.0
2018-Feb-17 21:00N 17°00' W 061°46'0 0.0
2018-Feb-17 20:30N 17°00' W 061°46'0 0.0
2018-Feb-17 20:00N 17°00' W 061°46'0 0.0
2018-Feb-17 19:30N 17°00' W 061°46'0 0.9
2018-Feb-17 18:59N 17°00' W 061°46'3 5.9
2018-Feb-17 18:31N 16°57' W 061°47'3 6.5
2018-Feb-17 17:59N 16°54' W 061°48'3 5.6
2018-Feb-17 17:31N 16°57' W 061°47'2 4.9
2018-Feb-17 17:01N 16°58' W 061°45'3 6.3
2018-Feb-17 16:30N 16°59' W 061°42'1 2.6
2018-Feb-17 16:00N 16°59' W 061°43'2 4.9
2018-Feb-17 15:30N 16°59' W 061°45'1 2.7
2018-Feb-17 15:00N 17°00' W 061°46'0 0.0
2018-Feb-16 19:29N 17°00' W 061°46'1 2.6
2018-Feb-16 18:59N 16°59' W 061°45'4 7.4
2018-Feb-16 18:30N 16°57' W 061°42'1 1.9
2018-Feb-16 17:59N 16°58' W 061°41'2 4.4
2018-Feb-16 17:31N 16°59' W 061°43'3 5.4
2018-Feb-16 17:00N 16°60' W 061°46'1 1.6
2018-Feb-16 16:25N 17°00' W 061°46'0 0.0
2018-Feb-16 15:58N 17°00' W 061°46'  
2018-Feb-13 22:41N 17°00' W 061°46'0 0.0
2018-Feb-13 22:29N 17°00' W 061°46'0 0.0
2018-Feb-13 21:59N 17°00' W 061°46'0 0.0
2018-Feb-13 21:29N 17°00' W 061°46'0 0.0
2018-Feb-13 20:59N 17°00' W 061°46'0 0.0
2018-Feb-13 20:29N 17°00' W 061°46'0 0.0
2018-Feb-13 19:59N 17°00' W 061°46'0 0.0
2018-Feb-13 19:29N 17°00' W 061°46'0 0.0
2018-Feb-13 18:59N 17°00' W 061°46'0 0.0
2018-Feb-13 18:29N 17°00' W 061°46'0 0.0
2018-Feb-13 17:59N 17°00' W 061°46'0 0.0
2018-Feb-13 17:29N 17°00' W 061°46'0 0.0
2018-Feb-13 16:56N 17°00' W 061°46'0 0.0
2018-Feb-13 16:29N 17°00' W 061°46'0 0.0
2018-Feb-13 15:59N 17°00' W 061°46'0 0.0
2018-Feb-13 15:29N 17°00' W 061°46'0 0.0
2018-Feb-13 14:59N 17°00' W 061°46'0 0.0
2018-Feb-13 14:29N 17°00' W 061°46'0 0.0
2018-Feb-13 13:59N 17°00' W 061°46'0 0.0
2018-Feb-13 13:29N 17°00' W 061°46'0 0.0
2018-Feb-13 12:56N 17°00' W 061°46'0 0.0
2018-Feb-13 12:29N 17°00' W 061°46'0 0.0
2018-Feb-13 11:59N 17°00' W 061°46'0 0.0
2018-Feb-13 11:29N 17°00' W 061°46'0 0.0
2018-Feb-13 10:59N 17°00' W 061°46'0 0.0
2018-Feb-13 10:29N 17°00' W 061°46'0 0.0
2018-Feb-13 09:59N 17°00' W 061°46'0 0.0
2018-Feb-13 09:29N 17°00' W 061°46'0 0.0
2018-Feb-13 08:59N 17°00' W 061°46'0 0.0
2018-Feb-13 08:29N 17°00' W 061°46'0 0.0
2018-Feb-13 07:59N 17°00' W 061°46'0 0.0
2018-Feb-13 07:29N 17°00' W 061°46'0 0.0
2018-Feb-13 06:59N 17°00' W 061°46'0 0.0
2018-Feb-13 06:29N 17°00' W 061°46'0 0.0
2018-Feb-13 05:59N 17°00' W 061°46'0 0.0
2018-Feb-13 05:29N 17°00' W 061°46'0 0.0
2018-Feb-13 04:59N 17°00' W 061°46'0 0.0
2018-Feb-13 04:29N 17°00' W 061°46'0 0.0
2018-Feb-13 03:59N 17°00' W 061°46'0 0.0
2018-Feb-13 03:29N 17°00' W 061°46'0 0.0
2018-Feb-11 12:04N 17°00' W 061°46'0 0.0
2018-Feb-11 11:58N 17°00' W 061°46'0 0.0
2018-Feb-11 11:30N 17°00' W 061°46'0 0.0
2018-Feb-11 04:23N 17°00' W 061°46'0 0.0
2018-Feb-10 22:17N 17°00' W 061°46'0 0.0
2018-Feb-10 21:59N 17°00' W 061°46'  
Track history (hours):
 
Tides and Currents Weather Stations Pressure Air Temp Water Temp Dewpoint Dewpoint Depression Visibility Wind Speed Wind Dir Waves Ship Positions

Godspeed

Last reported at 2018-Feb-20 21:32 UTC. Time now 2018-Feb-21 15:45 UTC.
Position N 18°02' W 063°05'.

Length 12 m.

Type: Sailing vessel. MMSI: 203545300.

Date/timePositionNaut miles runAvg speedWind from/ knotsBaromVisibWave heightAir tempDewpointWater temp
2018-Feb-20 21:32N 18°02' W 063°05'0 0.1
2018-Feb-20 21:25N 18°02' W 063°05'1 1.3
2018-Feb-20 20:59N 18°02' W 063°06'0 0.0
2018-Feb-20 20:25N 18°02' W 063°06'2 3.3
2018-Feb-20 19:56N 18°01' W 063°05'7 1.3
2018-Feb-20 14:39N 17°54' W 063°02'1 3.4
2018-Feb-20 14:29N 17°55' W 063°03'2 4.5
2018-Feb-20 13:59N 17°56' W 063°05'2 5.2
2018-Feb-20 13:30N 17°57' W 063°07'1 2.4
2018-Feb-20 12:59N 17°57' W 063°09'2 4.5
2018-Feb-20 12:30N 17°57' W 063°11'87 5.0
2018-Feb-19 18:56N 17°20' W 061°48'4 8.6
2018-Feb-19 18:30N 17°17' W 061°46'4 8.5
2018-Feb-19 18:00N 17°13' W 061°44'4 8.6
2018-Feb-19 17:30N 17°09' W 061°41'4 8.6
2018-Feb-19 17:00N 17°05' W 061°40'4 5.7
2018-Feb-19 16:22N 17°02' W 061°41'1 4.1
2018-Feb-19 16:00N 17°01' W 061°42'2 4.3
2018-Feb-19 15:30N 16°59' W 061°43'2 4.5
2018-Feb-19 14:59N 16°60' W 061°46'0 0.4
2018-Feb-19 14:26N 16°60' W 061°46'1 1.2
2018-Feb-19 14:00N 16°60' W 061°47'1 1.1
2018-Feb-19 13:30N 16°60' W 061°46'1 1.0
2018-Feb-19 12:58N 17°00' W 061°46'0 0.0
2018-Feb-19 12:28N 17°00' W 061°46'0 0.0
2018-Feb-19 11:58N 17°00' W 061°46'0 0.0
2018-Feb-19 11:28N 17°00' W 061°46'0 0.0
2018-Feb-18 22:34N 17°00' W 061°46'0 0.0
2018-Feb-18 22:28N 17°00' W 061°46'0 0.0
2018-Feb-18 21:58N 17°00' W 061°46'0 0.0
2018-Feb-18 21:28N 17°00' W 061°46'0 0.0
2018-Feb-18 20:58N 17°00' W 061°46'0 0.0
2018-Feb-18 20:28N 17°00' W 061°46'0 0.0
2018-Feb-18 19:59N 17°00' W 061°46'0 0.6
2018-Feb-18 19:29N 17°00' W 061°46'0 0.0
2018-Feb-18 18:59N 17°00' W 061°46'0 0.0
2018-Feb-18 18:29N 17°00' W 061°46'0 0.7
2018-Feb-18 18:00N 16°60' W 061°46'2 3.8
2018-Feb-18 17:29N 16°59' W 061°44'0 0.5
2018-Feb-18 17:00N 16°59' W 061°44'1 2.2
2018-Feb-18 16:30N 16°59' W 061°45'1 2.9
2018-Feb-18 16:00N 17°00' W 061°46'0 0.0
2018-Feb-18 15:30N 17°00' W 061°46'0 0.0
2018-Feb-18 15:00N 17°00' W 061°46'0 0.0
2018-Feb-18 14:29N 17°00' W 061°46'0 0.0
2018-Feb-18 13:59N 17°00' W 061°46'0 0.0
2018-Feb-18 13:30N 17°00' W 061°46'0 0.0
2018-Feb-17 21:36N 17°00' W 061°46'0 0.0
2018-Feb-17 21:30N 17°00' W 061°46'0 0.0
2018-Feb-17 21:00N 17°00' W 061°46'0 0.0
2018-Feb-17 20:30N 17°00' W 061°46'0 0.0
2018-Feb-17 20:00N 17°00' W 061°46'0 0.0
2018-Feb-17 19:30N 17°00' W 061°46'0 0.9
2018-Feb-17 18:59N 17°00' W 061°46'3 5.9
2018-Feb-17 18:31N 16°57' W 061°47'3 6.5
2018-Feb-17 17:59N 16°54' W 061°48'3 5.6
2018-Feb-17 17:31N 16°57' W 061°47'2 4.9
2018-Feb-17 17:01N 16°58' W 061°45'3 6.3
2018-Feb-17 16:30N 16°59' W 061°42'1 2.6
2018-Feb-17 16:00N 16°59' W 061°43'2 4.9
2018-Feb-17 15:30N 16°59' W 061°45'1 2.7
2018-Feb-17 15:00N 17°00' W 061°46'0 0.0
2018-Feb-16 19:29N 17°00' W 061°46'1 2.6
2018-Feb-16 18:59N 16°59' W 061°45'4 7.4
2018-Feb-16 18:30N 16°57' W 061°42'1 1.9
2018-Feb-16 17:59N 16°58' W 061°41'2 4.4
2018-Feb-16 17:31N 16°59' W 061°43'3 5.4
2018-Feb-16 17:00N 16°60' W 061°46'1 1.6
2018-Feb-16 16:25N 17°00' W 061°46'0 0.0
2018-Feb-16 15:58N 17°00' W 061°46'  
2018-Feb-13 22:41N 17°00' W 061°46'0 0.0
2018-Feb-13 22:29N 17°00' W 061°46'0 0.0
2018-Feb-13 21:59N 17°00' W 061°46'0 0.0
2018-Feb-13 21:29N 17°00' W 061°46'0 0.0
2018-Feb-13 20:59N 17°00' W 061°46'0 0.0
2018-Feb-13 20:29N 17°00' W 061°46'0 0.0
2018-Feb-13 19:59N 17°00' W 061°46'0 0.0
2018-Feb-13 19:29N 17°00' W 061°46'0 0.0
2018-Feb-13 18:59N 17°00' W 061°46'0 0.0
2018-Feb-13 18:29N 17°00' W 061°46'0 0.0
2018-Feb-13 17:59N 17°00' W 061°46'0 0.0
2018-Feb-13 17:29N 17°00' W 061°46'0 0.0
2018-Feb-13 16:56N 17°00' W 061°46'0 0.0
2018-Feb-13 16:29N 17°00' W 061°46'0 0.0
2018-Feb-13 15:59N 17°00' W 061°46'0 0.0
2018-Feb-13 15:29N 17°00' W 061°46'0 0.0
2018-Feb-13 14:59N 17°00' W 061°46'0 0.0
2018-Feb-13 14:29N 17°00' W 061°46'0 0.0
2018-Feb-13 13:59N 17°00' W 061°46'0 0.0
2018-Feb-13 13:29N 17°00' W 061°46'0 0.0
2018-Feb-13 12:56N 17°00' W 061°46'0 0.0
2018-Feb-13 12:29N 17°00' W 061°46'0 0.0
2018-Feb-13 11:59N 17°00' W 061°46'0 0.0
2018-Feb-13 11:29N 17°00' W 061°46'0 0.0
2018-Feb-13 10:59N 17°00' W 061°46'0 0.0
2018-Feb-13 10:29N 17°00' W 061°46'0 0.0
2018-Feb-13 09:59N 17°00' W 061°46'0 0.0
2018-Feb-13 09:29N 17°00' W 061°46'0 0.0
2018-Feb-13 08:59N 17°00' W 061°46'0 0.0
2018-Feb-13 08:29N 17°00' W 061°46'0 0.0
2018-Feb-13 07:59N 17°00' W 061°46'0 0.0
2018-Feb-13 07:29N 17°00' W 061°46'0 0.0
2018-Feb-13 06:59N 17°00' W 061°46'0 0.0
2018-Feb-13 06:29N 17°00' W 061°46'0 0.0
2018-Feb-13 05:59N 17°00' W 061°46'0 0.0
2018-Feb-13 05:29N 17°00' W 061°46'0 0.0
2018-Feb-13 04:59N 17°00' W 061°46'0 0.0
2018-Feb-13 04:29N 17°00' W 061°46'0 0.0
2018-Feb-13 03:59N 17°00' W 061°46'0 0.0
2018-Feb-13 03:29N 17°00' W 061°46'0 0.0
2018-Feb-11 12:04N 17°00' W 061°46'0 0.0
2018-Feb-11 11:58N 17°00' W 061°46'0 0.0
2018-Feb-11 11:30N 17°00' W 061°46'0 0.0
2018-Feb-11 04:23N 17°00' W 061°46'0 0.0
2018-Feb-10 22:17N 17°00' W 061°46'0 0.0
2018-Feb-10 21:59N 17°00' W 061°46'  

Dump ship's entire track history